createdAt,value
2023-02-06T00:01:46.440Z,66.36
2023-02-06T00:04:15.001Z,66.26
2023-02-06T00:06:43.002Z,66.34
2023-02-06T00:09:11.177Z,66.41
2023-02-06T00:11:38.658Z,66.23
2023-02-06T00:14:06.538Z,66.55
2023-02-06T00:16:35.084Z,66.46
2023-02-06T00:19:03.488Z,66.54
2023-02-06T00:21:34.167Z,66.76
2023-02-06T00:24:02.269Z,66.46
2023-02-06T00:26:31.176Z,66.60
2023-02-06T00:28:58.916Z,66.83
2023-02-06T00:31:26.792Z,67.13
2023-02-06T00:33:54.263Z,67.05
2023-02-06T00:36:21.834Z,67.26
2023-02-06T00:38:49.291Z,67.23
2023-02-06T00:41:16.922Z,67.29
2023-02-06T00:43:44.444Z,67.40
2023-02-06T00:46:11.986Z,67.21
2023-02-06T00:48:41.576Z,67.21
2023-02-06T00:51:09.250Z,66.98
2023-02-06T00:53:38.479Z,67.13
2023-02-06T00:56:06.404Z,67.63
2023-02-06T00:58:34.076Z,67.59
2023-02-06T01:01:01.410Z,67.58
2023-02-06T01:03:28.901Z,67.38
2023-02-06T01:05:57.533Z,67.54
2023-02-06T01:08:26.303Z,67.60
2023-02-06T01:10:53.889Z,67.61
2023-02-06T01:13:21.462Z,67.47
2023-02-06T01:15:50.988Z,67.75
2023-02-06T01:18:18.447Z,67.76
2023-02-06T01:20:46.068Z,67.67
2023-02-06T01:23:13.671Z,68.05
2023-02-06T01:25:42.673Z,68.13
2023-02-06T01:28:10.088Z,68.05
2023-02-06T01:30:38.696Z,68.18
2023-02-06T01:33:06.200Z,68.25
2023-02-06T01:35:34.148Z,68.05
2023-02-06T01:38:02.027Z,68.34
2023-02-06T01:40:29.542Z,68.32
2023-02-06T01:42:58.352Z,68.34
2023-02-06T01:45:35.814Z,68.45
2023-02-06T01:48:06.329Z,68.39
2023-02-06T01:50:35.652Z,68.16
2023-02-06T01:53:06.692Z,68.16
2023-02-06T01:55:36.150Z,68.20
2023-02-06T01:58:05.122Z,68.28
2023-02-06T02:00:32.695Z,68.29
2023-02-06T02:03:01.086Z,68.14
2023-02-06T02:05:32.592Z,68.69
2023-02-06T02:08:09.774Z,68.49
2023-02-06T02:10:39.201Z,68.42
2023-02-06T02:13:07.534Z,68.61
2023-02-06T02:15:50.704Z,68.98
2023-02-06T02:18:23.106Z,68.60
2023-02-06T02:20:57.451Z,68.65
2023-02-06T02:23:49.632Z,68.81
2023-02-06T02:29:28.660Z,68.88
2023-02-06T02:32:09.855Z,69.18
2023-02-06T02:35:02.667Z,69.57
2023-02-06T02:37:37.233Z,69.42
2023-02-06T02:40:20.676Z,69.59
2023-02-06T02:42:59.898Z,70.09
2023-02-06T02:45:38.868Z,69.98
2023-02-06T02:48:13.018Z,70.09
2023-02-06T02:50:42.084Z,70.18
2023-02-06T02:53:20.206Z,69.98
2023-02-06T02:56:12.279Z,70.19
2023-02-06T03:02:05.532Z,70.66
2023-02-06T03:08:07.025Z,70.34
2023-02-06T03:10:44.463Z,70.66
2023-02-06T03:13:49.793Z,70.82
2023-02-06T03:16:24.150Z,70.70
2023-02-06T03:19:04.624Z,70.54
2023-02-06T03:21:36.484Z,70.59
2023-02-06T03:24:11.259Z,70.55
2023-02-06T03:26:40.690Z,70.49
2023-02-06T03:29:10.914Z,70.72
2023-02-06T03:31:48.493Z,71.04
2023-02-06T03:34:26.215Z,71.04
2023-02-06T03:36:54.956Z,71.21
2023-02-06T03:39:22.982Z,71.18
2023-02-06T03:41:51.734Z,71.17
2023-02-06T03:44:24.956Z,71.38
2023-02-06T03:46:54.353Z,71.16
2023-02-06T03:49:24.486Z,71.14
2023-02-06T03:51:55.952Z,71.17
2023-02-06T03:54:25.904Z,71.22
2023-02-06T03:56:59.719Z,71.11
2023-02-06T03:59:27.715Z,71.31
2023-02-06T04:01:57.468Z,71.38
2023-02-06T04:04:31.389Z,71.40
2023-02-06T04:07:02.939Z,71.47
2023-02-06T04:09:31.837Z,71.33
2023-02-06T04:12:01.094Z,71.74
2023-02-06T04:14:52.519Z,71.66
2023-02-06T04:17:53.646Z,71.64
2023-02-06T04:20:18.817Z,71.51
2023-02-06T04:22:51.153Z,71.37
2023-02-06T04:25:21.910Z,71.30
2023-02-06T04:27:51.234Z,71.28
2023-02-06T04:30:22.274Z,71.34
2023-02-06T04:32:51.596Z,71.24
2023-02-06T04:35:19.703Z,71.22
2023-02-06T04:37:47.874Z,71.23
2023-02-06T04:40:17.981Z,71.52
2023-02-06T04:42:50.370Z,71.62
2023-02-06T04:45:18.713Z,71.63
2023-02-06T04:47:48.350Z,72.02
2023-02-06T04:50:18.241Z,72.13
2023-02-06T04:52:46.137Z,71.99
2023-02-06T04:55:15.051Z,72.04
2023-02-06T04:58:02.400Z,72.28
2023-02-06T05:00:34.806Z,72.41
2023-02-06T05:03:02.159Z,72.33
2023-02-06T05:05:29.842Z,72.46
2023-02-06T05:07:57.599Z,72.39
2023-02-06T05:10:28.232Z,72.74
2023-02-06T05:13:02.370Z,72.55
2023-02-06T05:15:29.923Z,72.29
2023-02-06T05:17:57.762Z,72.18
2023-02-06T05:20:25.407Z,72.10
2023-02-06T05:22:54.569Z,72.23
2023-02-06T05:25:22.564Z,72.23
2023-02-06T05:27:50.822Z,71.99
2023-02-06T05:30:18.833Z,72.06
2023-02-06T05:32:46.815Z,71.92
2023-02-06T05:35:14.560Z,71.82
2023-02-06T05:37:42.230Z,71.86
2023-02-06T05:40:12.222Z,71.92
2023-02-06T05:42:39.747Z,71.97
2023-02-06T05:45:08.551Z,71.87
2023-02-06T05:47:36.153Z,71.83
2023-02-06T05:50:04.029Z,71.94
2023-02-06T05:52:32.018Z,72.06
2023-02-06T05:55:02.770Z,71.99
2023-02-06T05:57:30.694Z,72.19
2023-02-06T05:59:58.408Z,72.14
2023-02-06T06:02:29.323Z,72.28
2023-02-06T06:11:14.704Z,73.36
2023-02-06T06:13:54.726Z,74.02
2023-02-06T06:19:42.567Z,72.73
2023-02-06T06:22:13.739Z,71.56
2023-02-06T06:24:44.402Z,69.81
2023-02-06T06:27:15.695Z,68.61
2023-02-06T06:29:47.081Z,68.56
2023-02-06T06:32:20.836Z,69.89
2023-02-06T06:34:54.402Z,69.52
2023-02-06T06:37:33.888Z,69.16
2023-02-06T06:40:01.698Z,67.09
2023-02-06T06:42:29.494Z,65.72
2023-02-06T06:44:59.376Z,65.72
2023-02-06T06:47:45.648Z,64.46
2023-02-06T06:50:13.787Z,64.31
2023-02-06T06:52:42.004Z,64.45
2023-02-06T06:55:12.121Z,64.78
2023-02-06T06:57:57.635Z,64.96
2023-02-06T07:10:40.846Z,60.70
2023-02-06T07:13:11.034Z,61.90
2023-02-06T07:15:38.628Z,61.53
2023-02-06T07:18:06.408Z,61.53
2023-02-06T07:20:34.596Z,61.77
2023-02-06T07:23:02.523Z,62.12
2023-02-06T07:25:30.469Z,62.43
2023-02-06T07:27:58.656Z,63.07
2023-02-06T07:30:26.911Z,63.35
2023-02-06T07:35:51.622Z,64.45
2023-02-06T07:38:21.049Z,64.76
2023-02-06T07:40:48.664Z,64.63
2023-02-06T07:43:19.685Z,64.25
2023-02-06T07:45:48.573Z,63.41
2023-02-06T07:48:16.530Z,63.30
2023-02-06T07:50:44.708Z,63.85
2023-02-06T07:53:12.225Z,64.69
2023-02-06T07:55:40.121Z,64.80
2023-02-06T07:58:07.721Z,64.34
2023-02-06T08:00:41.280Z,63.78
2023-02-06T08:03:14.425Z,63.88
2023-02-06T08:05:42.548Z,64.11
2023-02-06T08:08:10.145Z,63.59
2023-02-06T08:10:40.721Z,62.78
2023-02-06T08:13:08.254Z,63.07
2023-02-06T08:15:36.110Z,62.08
2023-02-06T08:18:04.641Z,61.79
2023-02-06T08:20:32.442Z,59.80
2023-02-06T08:23:00.042Z,60.24
2023-02-06T08:25:30.901Z,60.33
2023-02-06T08:27:58.581Z,60.12
2023-02-06T08:30:26.225Z,58.94
2023-02-06T08:32:55.664Z,59.33
2023-02-06T08:35:24.199Z,58.73
2023-02-06T08:37:52.000Z,59.31
2023-02-06T08:40:20.701Z,59.43
2023-02-06T08:43:17.656Z,59.37
2023-02-06T08:46:10.816Z,58.76
2023-02-06T08:49:00.222Z,59.18
2023-02-06T08:54:22.495Z,59.62
2023-02-06T08:56:51.240Z,58.90
2023-02-06T09:02:51.257Z,57.98
2023-02-06T09:05:21.052Z,58.02
2023-02-06T09:07:50.458Z,58.78
2023-02-06T09:10:28.316Z,58.72
2023-02-06T09:13:02.855Z,59.17
2023-02-06T09:15:41.019Z,59.68
2023-02-06T09:18:33.291Z,59.71
2023-02-06T09:21:15.176Z,59.85
2023-02-06T09:23:50.131Z,59.34
2023-02-06T09:26:24.258Z,59.19
2023-02-06T09:29:00.269Z,59.52
2023-02-06T09:31:32.662Z,59.12
2023-02-06T09:34:03.804Z,58.17
2023-02-06T09:36:33.632Z,58.38
2023-02-06T09:39:08.772Z,58.90
2023-02-06T09:41:43.040Z,58.19
2023-02-06T09:44:14.531Z,58.63
2023-02-06T09:46:49.421Z,58.48
2023-02-06T09:49:23.935Z,58.09
2023-02-06T09:52:10.957Z,58.25
2023-02-06T09:54:48.220Z,58.02
2023-02-06T09:57:37.904Z,57.95
2023-02-06T10:00:18.155Z,58.46
2023-02-06T10:02:58.455Z,58.62
2023-02-06T10:05:32.616Z,58.52
2023-02-06T10:08:09.986Z,58.43
2023-02-06T10:10:55.032Z,58.64
2023-02-06T10:13:35.357Z,58.70
2023-02-06T10:16:11.749Z,58.57
2023-02-06T10:22:08.699Z,58.94
2023-02-06T10:27:56.736Z,58.33
2023-02-06T10:30:43.348Z,58.52
2023-02-06T10:33:25.309Z,57.48
2023-02-06T10:50:58.510Z,57.19
2023-02-06T10:56:56.182Z,56.63
2023-02-06T10:59:35.094Z,57.01
2023-02-06T11:02:35.434Z,55.83
2023-02-06T11:05:16.534Z,56.08
2023-02-06T11:07:49.893Z,56.78
2023-02-06T11:10:20.354Z,57.19
2023-02-06T11:12:54.603Z,56.67
2023-02-06T11:15:30.702Z,56.83
2023-02-06T11:17:59.917Z,56.12
2023-02-06T11:20:32.089Z,56.12
2023-02-06T11:23:14.455Z,56.49
2023-02-06T11:25:42.644Z,56.30
2023-02-06T11:28:13.075Z,56.69
2023-02-06T11:30:42.483Z,57.21
2023-02-06T11:33:28.858Z,56.55
2023-02-06T11:36:01.795Z,56.23
2023-02-06T11:38:31.676Z,56.51
2023-02-06T11:41:07.244Z,56.70
2023-02-06T11:43:44.464Z,55.94
2023-02-06T11:46:18.678Z,56.04
2023-02-06T11:48:59.183Z,55.97
2023-02-06T11:51:47.189Z,56.88
2023-02-06T11:54:27.948Z,56.72
2023-02-06T11:57:03.010Z,55.72
2023-02-06T11:59:33.954Z,55.61
2023-02-06T12:02:06.451Z,55.67
2023-02-06T12:04:40.348Z,56.14
2023-02-06T12:07:17.443Z,56.81
2023-02-06T12:09:45.485Z,56.25
2023-02-06T12:12:19.730Z,56.19
2023-02-06T12:15:39.809Z,56.05
2023-02-06T12:17:48.077Z,55.51
2023-02-06T12:20:31.444Z,55.72
2023-02-06T12:26:21.809Z,56.00
2023-02-06T12:32:35.917Z,55.95
2023-02-06T12:35:14.102Z,56.05
2023-02-06T12:38:07.715Z,56.63
2023-02-06T12:41:03.533Z,56.10
2023-02-06T12:43:36.249Z,55.90
2023-02-06T12:46:07.764Z,56.09
2023-02-06T12:48:51.042Z,55.50
2023-02-06T12:51:25.450Z,55.65
2023-02-06T12:53:56.638Z,55.90
2023-02-06T12:56:35.776Z,54.42
2023-02-06T12:59:26.880Z,54.72
2023-02-06T13:02:10.324Z,54.96
2023-02-06T13:04:40.536Z,54.66
2023-02-06T13:07:11.498Z,54.15
2023-02-06T13:09:55.623Z,54.74
2023-02-06T13:12:30.114Z,54.75
2023-02-06T13:15:01.717Z,54.62
2023-02-06T13:17:36.025Z,55.13
2023-02-06T13:23:31.949Z,53.57
2023-02-06T13:26:06.128Z,53.41
2023-02-06T13:28:41.084Z,53.34
2023-02-06T13:31:13.403Z,53.61
2023-02-06T13:33:48.305Z,53.59
2023-02-06T13:36:18.392Z,53.15
2023-02-06T13:38:46.259Z,53.19
2023-02-06T13:41:17.392Z,53.42
2023-02-06T13:43:58.859Z,53.58
2023-02-06T13:46:33.732Z,53.15
2023-02-06T13:49:33.892Z,53.62
2023-02-06T13:52:11.562Z,53.72
2023-02-06T13:54:57.280Z,54.07
2023-02-06T13:57:50.620Z,54.23
2023-02-06T14:00:22.718Z,54.38
2023-02-06T14:02:56.975Z,54.33
2023-02-06T14:08:54.009Z,54.82
2023-02-06T14:11:39.868Z,55.07
2023-02-06T14:14:24.357Z,55.19
2023-02-06T14:17:04.801Z,55.49
2023-02-06T14:20:12.020Z,55.70
2023-02-06T14:26:48.384Z,56.17
2023-02-06T14:29:43.733Z,56.49
2023-02-06T14:32:33.082Z,56.82
2023-02-06T14:35:13.587Z,57.00
2023-02-06T14:38:03.509Z,57.03
2023-02-06T14:40:48.334Z,57.38
2023-02-06T14:43:18.939Z,57.58
2023-02-06T14:46:05.377Z,58.05
2023-02-06T14:48:32.269Z,57.95
2023-02-06T14:51:00.422Z,58.01
2023-02-06T14:53:31.351Z,58.13
2023-02-06T14:56:07.576Z,58.13
2023-02-06T14:58:35.231Z,58.24
2023-02-06T15:01:16.236Z,58.33
2023-02-06T15:03:48.887Z,58.41
2023-02-06T15:06:26.173Z,58.48
2023-02-06T15:08:53.729Z,58.81
2023-02-06T15:11:24.828Z,59.40
2023-02-06T15:13:54.607Z,59.44
2023-02-06T15:16:22.845Z,59.79
2023-02-06T15:19:10.497Z,59.82
2023-02-06T15:21:40.601Z,59.90
2023-02-06T15:24:47.539Z,59.91
2023-02-06T15:27:35.401Z,60.17
2023-02-06T15:30:26.416Z,60.47
2023-02-06T15:32:58.532Z,60.58
2023-02-06T15:35:36.164Z,60.68
2023-02-06T15:38:14.656Z,60.63
2023-02-06T15:41:00.844Z,60.25
2023-02-06T15:46:31.891Z,59.54
2023-02-06T15:49:03.943Z,59.50
2023-02-06T15:51:53.216Z,59.34
2023-02-06T15:54:24.117Z,58.95
2023-02-06T15:56:55.558Z,58.64
2023-02-06T15:59:25.339Z,58.61
2023-02-06T16:01:58.191Z,57.99
2023-02-06T16:04:35.948Z,57.25
2023-02-06T16:07:24.605Z,57.91
2023-02-06T16:09:55.674Z,58.04
2023-02-06T16:12:25.863Z,58.00
2023-02-06T16:14:57.865Z,57.80
2023-02-06T16:17:28.940Z,57.70
2023-02-06T16:20:02.189Z,57.55
2023-02-06T16:22:33.459Z,57.87
2023-02-06T16:25:20.968Z,57.73
2023-02-06T16:27:50.678Z,57.89
2023-02-06T16:30:28.373Z,58.25
2023-02-06T16:33:01.938Z,58.43
2023-02-06T16:35:29.843Z,58.48
2023-02-06T16:37:57.154Z,58.58
2023-02-06T16:40:27.078Z,58.56
2023-02-06T16:42:56.238Z,58.50
2023-02-06T16:45:26.386Z,58.40
2023-02-06T16:47:55.961Z,58.51
2023-02-06T16:50:24.788Z,58.47
2023-02-06T16:52:55.414Z,58.53
2023-02-06T16:55:25.132Z,58.61
2023-02-06T16:57:54.767Z,58.78
2023-02-06T17:00:25.704Z,58.89
2023-02-06T17:02:54.070Z,58.89
2023-02-06T17:05:24.044Z,58.55
2023-02-06T17:07:52.893Z,57.63
2023-02-06T17:10:26.092Z,57.06
2023-02-06T17:12:53.916Z,57.17
2023-02-06T17:15:22.210Z,57.47
2023-02-06T17:17:50.128Z,57.58
2023-02-06T17:20:33.701Z,57.77
2023-02-06T17:23:01.739Z,57.96
2023-02-06T17:25:29.804Z,58.00
2023-02-06T17:27:57.972Z,58.20
2023-02-06T17:30:26.220Z,58.08
2023-02-06T17:32:54.368Z,58.13
2023-02-06T17:35:22.069Z,58.04
2023-02-06T17:37:51.011Z,57.73
2023-02-06T17:40:23.985Z,57.92
2023-02-06T17:42:53.998Z,58.54
2023-02-06T17:45:22.015Z,59.44
2023-02-06T17:47:49.638Z,59.99
2023-02-06T17:50:19.657Z,59.90
2023-02-06T17:52:48.921Z,60.13
2023-02-06T17:55:16.868Z,60.31
2023-02-06T17:57:44.910Z,60.52
2023-02-06T18:00:15.488Z,60.65
2023-02-06T18:02:43.672Z,61.05
2023-02-06T18:05:11.337Z,61.28
2023-02-06T18:07:39.168Z,61.53
2023-02-06T18:10:11.076Z,61.77
2023-02-06T18:12:39.903Z,61.96
2023-02-06T18:15:08.099Z,62.17
2023-02-06T18:17:36.036Z,62.43
2023-02-06T18:20:04.264Z,62.78
2023-02-06T18:22:33.462Z,63.83
2023-02-06T18:25:03.192Z,64.34
2023-02-06T18:27:32.298Z,64.64
2023-02-06T18:30:03.847Z,64.67
2023-02-06T18:32:32.718Z,64.44
2023-02-06T18:35:00.490Z,64.78
2023-02-06T18:37:28.015Z,64.71
2023-02-06T18:39:56.974Z,64.85
2023-02-06T18:42:42.991Z,65.03
2023-02-06T18:45:10.647Z,65.12
2023-02-06T18:47:39.467Z,65.16
2023-02-06T18:50:07.348Z,65.41
2023-02-06T18:52:35.083Z,65.44
2023-02-06T18:55:02.768Z,65.42
2023-02-06T18:57:30.137Z,65.46
2023-02-06T19:00:01.731Z,65.36
2023-02-06T19:02:29.396Z,65.39
2023-02-06T19:04:59.826Z,65.51
2023-02-06T19:07:27.385Z,65.68
2023-02-06T19:09:58.268Z,65.62
2023-02-06T19:12:29.251Z,65.62
2023-02-06T19:14:58.536Z,65.73
2023-02-06T19:17:26.843Z,65.80
2023-02-06T19:19:54.892Z,66.04
2023-02-06T19:22:24.267Z,65.98
2023-02-06T19:24:53.162Z,65.88
2023-02-06T19:27:23.059Z,65.82
2023-02-06T19:29:50.779Z,66.02
2023-02-06T19:32:18.297Z,65.84
2023-02-06T19:34:45.799Z,66.02
2023-02-06T19:37:15.421Z,65.86
2023-02-06T19:39:44.294Z,65.93
2023-02-06T19:42:14.971Z,66.16
2023-02-06T19:44:42.822Z,66.02
2023-02-06T19:47:10.745Z,66.21
2023-02-06T19:49:38.540Z,66.12
2023-02-06T19:52:09.031Z,66.71
2023-02-06T19:54:37.009Z,66.92
2023-02-06T19:57:04.974Z,67.08
2023-02-06T19:59:32.890Z,67.23
2023-02-06T20:02:01.718Z,67.56
2023-02-06T20:04:35.510Z,67.58
2023-02-06T20:07:03.308Z,67.60
2023-02-06T20:09:31.754Z,68.05
2023-02-06T20:11:59.689Z,67.98
2023-02-06T20:14:28.035Z,68.12
2023-02-06T20:16:57.607Z,68.09
2023-02-06T20:19:27.227Z,68.10
2023-02-06T20:21:58.391Z,68.14
2023-02-06T20:24:29.045Z,68.57
2023-02-06T20:27:01.612Z,68.56
2023-02-06T20:29:35.314Z,68.41
2023-02-06T20:32:04.608Z,68.44
2023-02-06T20:34:32.852Z,68.31
2023-02-06T20:37:00.538Z,68.39
2023-02-06T20:39:31.495Z,68.41
2023-02-06T20:42:01.506Z,68.37
2023-02-06T20:44:29.819Z,68.37
2023-02-06T20:46:57.991Z,68.35
2023-02-06T20:49:27.767Z,68.31
2023-02-06T20:51:55.981Z,68.42
2023-02-06T20:54:24.460Z,68.27
2023-02-06T20:56:52.239Z,68.31
2023-02-06T20:59:20.264Z,68.21
2023-02-06T21:01:47.939Z,68.26
2023-02-06T21:04:16.520Z,68.24
2023-02-06T21:06:46.143Z,68.19
2023-02-06T21:09:14.065Z,68.22
2023-02-06T21:11:44.634Z,68.38
2023-02-06T21:14:14.583Z,68.22
2023-02-06T21:16:43.406Z,68.25
2023-02-06T21:19:13.102Z,68.26
2023-02-06T21:21:40.796Z,68.16
2023-02-06T21:24:09.460Z,68.45
2023-02-06T21:26:38.546Z,68.29
2023-02-06T21:29:07.369Z,68.31
2023-02-06T21:31:38.357Z,68.29
2023-02-06T21:34:15.775Z,68.32
2023-02-06T21:36:43.617Z,68.33
2023-02-06T21:39:14.674Z,68.65
2023-02-06T21:41:42.695Z,68.69
2023-02-06T21:44:10.540Z,68.71
2023-02-06T21:46:37.770Z,68.72
2023-02-06T21:49:05.890Z,68.69
2023-02-06T21:51:33.456Z,68.79
2023-02-06T21:54:01.175Z,69.22
2023-02-06T21:56:28.885Z,69.10
2023-02-06T21:58:57.097Z,69.01
2023-02-06T22:01:27.836Z,69.11
2023-02-06T22:03:56.627Z,69.31
2023-02-06T22:06:24.416Z,69.25
2023-02-06T22:08:52.821Z,69.15
2023-02-06T22:11:26.888Z,69.29
2023-02-06T22:13:59.605Z,69.54
2023-02-06T22:16:27.785Z,69.21
2023-02-06T22:18:55.731Z,69.38
2023-02-06T22:21:25.185Z,69.36
2023-02-06T22:23:58.708Z,69.48
2023-02-06T22:26:27.237Z,69.42
2023-02-06T22:28:56.442Z,69.37
2023-02-06T22:31:26.710Z,69.33
2023-02-06T22:33:54.731Z,69.44
2023-02-06T22:36:24.684Z,69.45
2023-02-06T22:38:55.514Z,69.60
2023-02-06T22:41:23.160Z,69.52
2023-02-06T22:43:51.160Z,69.62
2023-02-06T22:46:22.348Z,69.68
2023-02-06T22:48:49.951Z,69.80
2023-02-06T22:51:18.432Z,69.68
2023-02-06T22:53:46.018Z,69.74
2023-02-06T22:56:30.840Z,69.75
2023-02-06T22:59:07.298Z,69.75
2023-02-06T23:01:38.533Z,69.93
2023-02-06T23:04:09.754Z,70.02
2023-02-06T23:06:37.543Z,69.94
2023-02-06T23:09:06.451Z,69.81
2023-02-06T23:11:34.579Z,69.90
2023-02-06T23:14:04.254Z,69.90
2023-02-06T23:16:33.577Z,70.13
2023-02-06T23:19:04.022Z,70.16
2023-02-06T23:21:33.490Z,70.19
2023-02-06T23:24:01.349Z,70.21
2023-02-06T23:26:29.883Z,70.18
2023-02-06T23:28:58.873Z,70.26
2023-02-06T23:31:27.345Z,70.43
2023-02-06T23:33:55.419Z,70.72
2023-02-06T23:36:26.642Z,70.85
2023-02-06T23:38:54.747Z,70.86
2023-02-06T23:41:24.917Z,70.91
2023-02-06T23:43:55.069Z,71.14
2023-02-06T23:46:22.891Z,71.08
2023-02-06T23:48:50.857Z,71.12
2023-02-06T23:51:19.999Z,70.90
2023-02-06T23:53:47.768Z,70.20
2023-02-06T23:56:18.201Z,70.44
2023-02-06T23:58:45.678Z,70.48
